Aérodrome :
LOGIN :

S'inscrire | Disclaimer

   EN    FR    IT 

 










Légende :    VFR   VFR Marginal   IFR   IFR Intensif   IFR Très Intensif
Visi : 
Plafond : 
>= 8 km
>= 3000ft
5 à 8 km
1000 à 3000 ft
1500m à 5 km
500 à 1000 ft
800 à 1500m
200 à 500 ft
< 800m
< 200 ft
Symboles :   Orages  Brouillard  Fortes neiges  Fortes précipitations  Vent > 20 kt
SIGMETs :   Divers  Orages  Givrage  Turbulence  Onde Orograph.  Cendres Volcan.






- Altitude de l'aérodrome : 37 ft


EHVL - Vlieland Heliport

DERNIER METAR :
  • 270940Z AUTO 22004KT 2900 BR FEW000 06/06 Q1041 YLO

METARs EXPIRÉS :
  • 270925Z AUTO 25004KT 0350 FG BKN000 05/05 Q1041 RED
  • 270916Z AUTO 24004KT 0350 FG BKN000 05/05 Q1041 RED
  • 270915Z AUTO 22005KT 0300 FG NCD 05/05 Q1041 RED
  • 270855Z AUTO 20005KT 0350 FG VV000 04/04 Q1040 RED
  • 270844Z AUTO 19005KT 1400 BR BKN000 05/05 Q1040 RED
  • 270825Z AUTO 24002KT 6000 BR FEW350 05/05 Q1040 WHT
  • 270817Z AUTO 25003KT 220V280 5000 BR FEW350 05/05 Q1040 WHT
  • 270800Z AUTO 27005KT 4000 BR NCD 05/05 Q1040 GRN
  • 270742Z AUTO 27006KT 1900 BR FEW002 OVC004 04/04 Q1040 YLO
  • 270727Z AUTO 25005KT 2000 BR FEW001 OVC003 04/04 Q1040 YLO
  • 270725Z AUTO 26006KT 1900 BR SCT001 OVC002 04/04 Q1040 RED
  • 270710Z AUTO 26005KT 0900 FG FEW001 SCT340 04/04 Q1040 AMB
  • 270655Z AUTO 25004KT 0400 FG NCD 03/03 Q1039 RED
  • 270636Z AUTO 26005KT 0650 FG FEW340 03/03 Q1039 RED

Prévision TAF périmée.



MET'MAP, la Météo Aéronautique d'un coup d'oeil ! - Copyright ORBIFLY Décembre 2007 - Disclaimer

ORBIFLY MET'MAP TEAM :

Programmation & Développement : Alexandra Zaïnal
Sur une idée originale de : Baudouin d'Aumeries
Assistance à la programmation : Marc-Olivier Méhu
Soutien technique & logistique : Manuel Goepfert

Contact : metmap@orbifly.com




SOURCES & CREDITS :

   NOAA